createdAt,value
2018-07-16T00:00:35.693Z,22.60
2018-07-16T00:03:04.092Z,22.50
2018-07-16T00:05:32.517Z,22.50
2018-07-16T00:08:00.866Z,22.50
2018-07-16T00:10:29.256Z,22.40
2018-07-16T00:12:57.601Z,22.40
2018-07-16T00:15:26.272Z,22.30
2018-07-16T00:17:54.677Z,22.40
2018-07-16T00:20:23.013Z,22.30
2018-07-16T00:22:51.685Z,22.30
2018-07-16T00:25:20.095Z,22.30
2018-07-16T00:27:48.717Z,22.30
2018-07-16T00:30:17.148Z,22.20
2018-07-16T00:32:45.498Z,22.20
2018-07-16T00:35:13.845Z,22.10
2018-07-16T00:40:10.272Z,22.10
2018-07-16T00:42:38.653Z,22.00
2018-07-16T00:45:07.086Z,21.90
2018-07-16T00:47:35.487Z,21.90
2018-07-16T00:50:03.877Z,21.80
2018-07-16T00:52:32.269Z,21.80
2018-07-16T00:55:01.545Z,21.80
2018-07-16T00:57:29.976Z,21.80
2018-07-16T00:59:58.317Z,21.80
2018-07-16T01:02:27.016Z,21.70
2018-07-16T01:04:55.456Z,21.50
2018-07-16T01:07:23.888Z,21.50
2018-07-16T01:09:52.249Z,21.60
2018-07-16T01:12:20.648Z,21.60
2018-07-16T01:14:48.956Z,21.50
2018-07-16T01:17:17.649Z,21.50
2018-07-16T01:19:45.974Z,21.40
2018-07-16T01:22:14.368Z,21.40
2018-07-16T01:24:42.777Z,21.40
2018-07-16T01:27:11.181Z,21.30
2018-07-16T01:29:39.819Z,21.40
2018-07-16T01:32:08.188Z,21.30
2018-07-16T01:34:36.989Z,21.30
2018-07-16T01:37:05.434Z,21.20
2018-07-16T01:39:33.824Z,21.20
2018-07-16T01:42:02.224Z,21.30
2018-07-16T01:44:30.770Z,21.20
2018-07-16T01:46:59.439Z,21.20
2018-07-16T01:49:27.795Z,21.20
2018-07-16T01:51:56.238Z,21.20
2018-07-16T01:54:24.642Z,21.10
2018-07-16T01:56:53.024Z,21.10
2018-07-16T01:59:21.368Z,21.10
2018-07-16T02:01:50.028Z,21.10
2018-07-16T02:09:14.937Z,21.00
2018-07-16T02:11:43.571Z,20.90
2018-07-16T02:14:13.300Z,20.90
2018-07-16T02:16:41.683Z,21.00
2018-07-16T02:19:10.364Z,21.00
2018-07-16T02:21:38.778Z,20.90
2018-07-16T02:24:07.181Z,20.90
2018-07-16T02:26:35.535Z,20.90
2018-07-16T02:29:03.845Z,20.80
2018-07-16T02:31:32.243Z,20.70
2018-07-16T02:47:00.251Z,20.70
2018-07-16T02:49:28.615Z,20.70
2018-07-16T02:51:56.983Z,20.30
2018-07-16T02:54:25.354Z,20.30
2018-07-16T02:56:53.754Z,20.30
2018-07-16T02:59:22.120Z,20.30
2018-07-16T03:01:50.885Z,20.20
2018-07-16T03:04:19.319Z,20.30
2018-07-16T03:06:47.707Z,20.30
2018-07-16T03:09:16.056Z,20.30
2018-07-16T03:11:44.403Z,20.30
2018-07-16T03:14:12.811Z,20.30
2018-07-16T03:16:45.387Z,20.30
2018-07-16T03:19:13.881Z,20.30
2018-07-16T03:21:42.281Z,20.30
2018-07-16T03:24:10.592Z,20.20
2018-07-16T03:26:39.000Z,20.20
2018-07-16T03:29:07.502Z,20.20
2018-07-16T03:31:35.889Z,20.20
2018-07-16T03:34:04.340Z,20.10
2018-07-16T03:36:33.132Z,20.10
2018-07-16T03:39:01.613Z,20.10
2018-07-16T03:41:29.999Z,20.10
2018-07-16T03:43:58.416Z,20.10
2018-07-16T03:46:26.786Z,20.00
2018-07-16T03:48:55.167Z,20.00
2018-07-16T03:51:23.832Z,20.00
2018-07-16T03:53:52.221Z,20.00
2018-07-16T03:56:20.610Z,20.00
2018-07-16T03:58:49.009Z,20.00
2018-07-16T04:01:17.916Z,20.00
2018-07-16T04:03:46.282Z,20.00
2018-07-16T04:06:14.695Z,20.00
2018-07-16T04:08:43.021Z,19.90
2018-07-16T04:11:11.397Z,19.90
2018-07-16T04:13:40.419Z,19.90
2018-07-16T04:16:09.088Z,20.00
2018-07-16T04:18:37.458Z,20.00
2018-07-16T04:21:05.780Z,20.00
2018-07-16T04:23:34.140Z,20.00
2018-07-16T04:26:02.567Z,20.00
2018-07-16T04:28:31.029Z,20.00
2018-07-16T04:30:59.510Z,20.00
2018-07-16T04:33:28.157Z,20.00
2018-07-16T04:35:56.565Z,20.00
2018-07-16T04:38:25.020Z,20.00
2018-07-16T04:40:53.448Z,20.10
2018-07-16T04:43:22.002Z,20.10
2018-07-16T04:45:50.483Z,20.10
2018-07-16T04:48:18.942Z,20.10
2018-07-16T04:50:47.332Z,20.10
2018-07-16T04:53:15.765Z,20.10
2018-07-16T04:55:44.082Z,20.20
2018-07-16T04:58:12.456Z,20.30
2018-07-16T05:00:41.190Z,20.30
2018-07-16T05:05:37.672Z,20.30
2018-07-16T05:08:06.051Z,20.40
2018-07-16T05:10:34.438Z,20.50
2018-07-16T05:13:03.144Z,20.40
2018-07-16T05:15:31.528Z,20.40
2018-07-16T05:18:00.087Z,20.50
2018-07-16T05:20:28.353Z,20.60
2018-07-16T05:22:56.797Z,20.70
2018-07-16T05:25:25.109Z,20.70
2018-07-16T05:27:53.489Z,20.80
2018-07-16T05:30:21.869Z,20.80
2018-07-16T05:35:18.434Z,21.00
2018-07-16T05:37:47.100Z,20.90
2018-07-16T05:40:15.560Z,21.10
2018-07-16T05:42:43.929Z,21.20
2018-07-16T05:45:12.265Z,21.30
2018-07-16T05:47:41.004Z,21.40
2018-07-16T05:50:09.393Z,21.30
2018-07-16T05:52:38.258Z,21.40
2018-07-16T05:55:06.685Z,21.50
2018-07-16T05:57:35.061Z,21.50
2018-07-16T06:00:03.519Z,21.60
2018-07-16T06:02:31.970Z,21.60
2018-07-16T06:05:00.314Z,21.70
2018-07-16T06:07:28.781Z,21.80
2018-07-16T06:09:57.240Z,21.80
2018-07-16T06:12:26.019Z,21.70
2018-07-16T06:14:54.732Z,21.70
2018-07-16T06:17:23.188Z,21.70
2018-07-16T06:19:51.937Z,21.80
2018-07-16T06:22:20.612Z,21.80
2018-07-16T06:24:49.000Z,21.90
2018-07-16T06:27:17.413Z,21.90
2018-07-16T06:29:46.129Z,22.00
2018-07-16T06:32:14.815Z,22.20
2018-07-16T06:34:43.251Z,22.10
2018-07-16T06:37:11.609Z,22.30
2018-07-16T06:39:40.171Z,22.30
2018-07-16T06:42:08.562Z,22.30
2018-07-16T06:44:37.445Z,22.50
2018-07-16T06:47:05.945Z,22.70
2018-07-16T06:49:34.413Z,22.90
2018-07-16T06:52:02.841Z,23.20
2018-07-16T06:54:31.301Z,23.30
2018-07-16T06:56:59.697Z,23.30
2018-07-16T06:59:28.222Z,23.40
2018-07-16T07:01:56.626Z,23.50
2018-07-16T07:04:24.990Z,23.80
2018-07-16T07:09:21.395Z,23.90
2018-07-16T07:11:50.153Z,24.10
2018-07-16T07:14:19.109Z,24.20
2018-07-16T07:16:47.577Z,24.40
2018-07-16T07:19:15.958Z,24.70
2018-07-16T07:21:44.344Z,24.70
2018-07-16T07:24:12.723Z,24.80
2018-07-16T07:26:41.944Z,25.00
2018-07-16T07:29:10.324Z,25.00
2018-07-16T07:31:39.387Z,25.10
2018-07-16T07:34:07.865Z,25.30
2018-07-16T07:36:36.300Z,25.30
2018-07-16T07:39:05.753Z,25.60
2018-07-16T07:41:34.162Z,25.30
2018-07-16T07:46:30.991Z,25.60
2018-07-16T07:48:59.720Z,26.00
2018-07-16T07:51:28.224Z,26.30
2018-07-16T07:53:56.653Z,26.30
2018-07-16T07:56:25.147Z,26.70
2018-07-16T07:58:53.542Z,26.80
2018-07-16T08:01:22.118Z,26.80
2018-07-16T08:03:50.518Z,27.00
2018-07-16T08:06:18.916Z,27.30
2018-07-16T08:08:47.264Z,27.50
2018-07-16T08:11:15.730Z,27.80
2018-07-16T08:13:44.490Z,27.80
2018-07-16T08:16:12.856Z,27.90
2018-07-16T08:18:41.326Z,27.50
2018-07-16T08:21:13.203Z,27.40
2018-07-16T08:23:42.535Z,27.50
2018-07-16T08:26:11.015Z,27.50
2018-07-16T08:28:39.413Z,27.30
2018-07-16T08:31:07.789Z,27.50
2018-07-16T08:33:36.170Z,28.00
2018-07-16T08:36:04.566Z,28.20
2018-07-16T08:38:33.007Z,28.20
2018-07-16T08:41:01.385Z,28.40
2018-07-16T08:43:29.775Z,28.70
2018-07-16T08:45:58.240Z,29.60
2018-07-16T08:50:55.634Z,30.60
2018-07-16T08:53:24.426Z,31.00
2018-07-16T08:55:52.810Z,30.90
2018-07-16T08:58:21.435Z,30.60
2018-07-16T09:00:49.841Z,31.20
2018-07-16T09:03:18.540Z,31.80
2018-07-16T09:05:51.497Z,32.70
2018-07-16T09:08:19.901Z,31.80
2018-07-16T09:10:48.354Z,31.40
2018-07-16T09:13:16.728Z,31.40
2018-07-16T09:15:45.188Z,31.30
2018-07-16T09:18:13.893Z,32.10
2018-07-16T09:20:42.223Z,32.70
2018-07-16T09:23:10.601Z,33.80
2018-07-16T09:25:39.045Z,33.80
2018-07-16T09:28:07.406Z,34.20
2018-07-16T09:30:35.760Z,33.10
2018-07-16T09:33:04.149Z,33.00
2018-07-16T09:35:32.482Z,33.10
2018-07-16T09:38:00.825Z,33.10
2018-07-16T09:40:29.329Z,32.10
2018-07-16T09:42:57.723Z,32.20
2018-07-16T09:45:26.107Z,32.60
2018-07-16T09:47:54.804Z,32.30
2018-07-16T09:50:23.194Z,32.30
2018-07-16T09:54:20.775Z,31.40
2018-07-16T09:56:49.164Z,31.10
2018-07-16T09:59:17.486Z,31.80
2018-07-16T10:01:50.081Z,32.20
2018-07-16T10:04:18.558Z,32.20
2018-07-16T10:06:46.850Z,32.50
2018-07-16T10:09:15.222Z,33.00
2018-07-16T10:11:43.598Z,32.70
2018-07-16T10:14:12.842Z,32.60
2018-07-16T10:16:41.254Z,32.90
2018-07-16T10:19:09.665Z,33.10
2018-07-16T10:21:38.073Z,32.40
2018-07-16T10:24:06.525Z,32.40
2018-07-16T10:26:35.009Z,31.30
2018-07-16T10:29:03.320Z,32.50
2018-07-16T10:31:31.700Z,32.20
2018-07-16T10:34:00.204Z,33.10
2018-07-16T10:36:28.529Z,33.30
2018-07-16T10:38:57.002Z,33.80
2018-07-16T10:41:25.443Z,32.80
2018-07-16T10:43:53.861Z,32.90
2018-07-16T10:46:22.242Z,34.00
2018-07-16T10:48:50.899Z,33.60
2018-07-16T10:51:19.308Z,34.40
2018-07-16T10:53:47.684Z,32.50
2018-07-16T10:56:16.042Z,32.80
2018-07-16T10:58:44.509Z,33.90
2018-07-16T11:01:12.855Z,32.40
2018-07-16T11:03:41.586Z,33.50
2018-07-16T11:06:15.373Z,33.90
2018-07-16T11:08:43.871Z,34.10
2018-07-16T11:11:12.313Z,33.90
2018-07-16T11:13:40.715Z,33.90
2018-07-16T11:16:09.423Z,33.90
2018-07-16T11:18:37.844Z,35.00
2018-07-16T11:21:06.301Z,34.40
2018-07-16T11:23:34.805Z,34.40
2018-07-16T11:26:03.231Z,35.00
2018-07-16T11:28:31.664Z,35.00
2018-07-16T11:31:00.047Z,35.10
2018-07-16T11:33:28.524Z,35.10
2018-07-16T11:35:57.038Z,34.60
2018-07-16T11:38:25.430Z,34.80
2018-07-16T11:40:53.774Z,34.10
2018-07-16T11:43:22.131Z,34.70
2018-07-16T11:45:50.817Z,35.40
2018-07-16T11:48:19.199Z,34.80
2018-07-16T11:50:47.611Z,34.10
2018-07-16T11:53:15.958Z,34.00
2018-07-16T11:55:44.363Z,35.00
2018-07-16T11:58:12.820Z,34.40
2018-07-16T12:00:41.250Z,34.20
2018-07-16T12:03:09.724Z,34.20
2018-07-16T12:05:38.113Z,35.00
2018-07-16T12:08:06.466Z,34.30
2018-07-16T12:10:34.964Z,33.60
2018-07-16T12:13:03.470Z,34.10
2018-07-16T12:15:32.006Z,34.40
2018-07-16T12:18:00.394Z,34.90
2018-07-16T12:22:57.277Z,34.00
2018-07-16T12:25:25.683Z,34.30
2018-07-16T12:27:54.176Z,34.50
2018-07-16T12:30:22.986Z,34.30
2018-07-16T12:32:51.848Z,33.80
2018-07-16T12:35:20.404Z,33.60
2018-07-16T12:37:48.791Z,33.80
2018-07-16T12:40:17.234Z,34.30
2018-07-16T12:42:46.007Z,33.60
2018-07-16T12:45:14.436Z,33.30
2018-07-16T12:47:42.845Z,32.70
2018-07-16T12:52:39.345Z,33.50
2018-07-16T12:55:08.120Z,33.30
2018-07-16T12:57:36.530Z,33.90
2018-07-16T13:00:06.128Z,33.80
2018-07-16T13:02:34.606Z,33.80
2018-07-16T13:05:02.957Z,34.10
2018-07-16T13:07:31.337Z,33.70
2018-07-16T13:09:59.778Z,33.20
2018-07-16T13:12:28.151Z,33.80
2018-07-16T13:14:56.614Z,33.30
2018-07-16T13:17:24.979Z,33.80
2018-07-16T13:19:53.891Z,33.70
2018-07-16T13:22:22.289Z,33.90
2018-07-16T13:24:50.658Z,33.40
2018-07-16T13:27:19.024Z,33.80
2018-07-16T13:32:15.624Z,33.00
2018-07-16T13:34:44.086Z,33.50
2018-07-16T13:37:12.604Z,34.10
2018-07-16T13:39:41.215Z,34.10
2018-07-16T13:42:09.923Z,33.90
2018-07-16T13:44:38.512Z,33.00
2018-07-16T13:47:06.974Z,32.40
2018-07-16T13:49:35.454Z,31.60
2018-07-16T13:52:03.809Z,31.40
2018-07-16T13:54:32.286Z,31.60
2018-07-16T13:57:01.293Z,31.60
2018-07-16T13:59:29.648Z,31.60
2018-07-16T14:01:58.063Z,31.40
2018-07-16T14:04:26.383Z,32.10
2018-07-16T14:06:54.760Z,32.20
2018-07-16T14:10:25.983Z,31.80
2018-07-16T14:12:54.357Z,31.70
2018-07-16T14:15:22.777Z,32.00
2018-07-16T14:17:51.136Z,32.10
2018-07-16T14:20:19.564Z,32.60
2018-07-16T14:22:47.923Z,32.20
2018-07-16T14:25:16.564Z,32.50
2018-07-16T14:27:45.002Z,31.90
2018-07-16T14:30:13.381Z,31.70
2018-07-16T14:32:41.757Z,31.90
2018-07-16T14:35:10.333Z,31.80
2018-07-16T14:37:38.673Z,31.60
2018-07-16T14:40:07.460Z,31.50
2018-07-16T14:42:35.837Z,31.30
2018-07-16T14:45:04.365Z,31.40
2018-07-16T14:47:32.775Z,31.40
2018-07-16T14:50:01.172Z,31.00
2018-07-16T14:52:29.576Z,31.20
2018-07-16T14:54:58.051Z,31.00
2018-07-16T14:57:26.802Z,31.20
2018-07-16T14:59:55.573Z,31.30
2018-07-16T15:02:24.235Z,31.30
2018-07-16T15:04:52.750Z,30.70
2018-07-16T15:07:21.118Z,30.60
2018-07-16T15:09:50.343Z,30.80
2018-07-16T15:12:18.756Z,30.90
2018-07-16T15:14:47.286Z,30.80
2018-07-16T15:17:16.480Z,31.00
2018-07-16T15:19:44.915Z,30.80
2018-07-16T15:22:13.349Z,30.80
2018-07-16T15:24:42.519Z,30.80
2018-07-16T15:27:10.884Z,30.60
2018-07-16T15:34:35.700Z,30.90
2018-07-16T15:37:04.319Z,30.60
2018-07-16T15:39:32.741Z,30.50
2018-07-16T15:42:01.182Z,30.40
2018-07-16T15:46:58.047Z,30.30
2018-07-16T15:49:26.462Z,30.50
2018-07-16T15:51:55.182Z,30.40
2018-07-16T15:54:23.557Z,30.40
2018-07-16T15:56:52.030Z,30.30
2018-07-16T15:59:20.435Z,30.30
2018-07-16T16:01:48.843Z,30.40
2018-07-16T16:04:17.240Z,30.40
2018-07-16T16:06:45.618Z,30.50
2018-07-16T16:09:13.959Z,30.40
2018-07-16T16:11:42.362Z,30.60
2018-07-16T16:14:10.733Z,30.30
2018-07-16T16:16:39.134Z,30.30
2018-07-16T16:19:07.509Z,30.20
2018-07-16T16:21:35.967Z,30.20
2018-07-16T16:24:04.378Z,30.40
2018-07-16T16:26:32.721Z,30.30
2018-07-16T16:29:01.072Z,30.30
2018-07-16T16:31:29.474Z,30.30
2018-07-16T16:33:57.874Z,30.20
2018-07-16T16:36:26.247Z,30.10
2018-07-16T16:38:54.594Z,30.20
2018-07-16T16:43:51.045Z,30.10
2018-07-16T16:46:19.927Z,30.20
2018-07-16T16:48:48.470Z,30.20
2018-07-16T16:51:16.865Z,30.30
2018-07-16T16:53:45.642Z,30.20
2018-07-16T16:56:14.012Z,29.80
2018-07-16T16:58:42.468Z,29.70
2018-07-16T17:01:10.901Z,29.60
2018-07-16T17:03:39.345Z,29.40
2018-07-16T17:08:35.927Z,29.70
2018-07-16T17:11:04.375Z,29.70
2018-07-16T17:13:32.804Z,29.70
2018-07-16T17:16:01.252Z,29.70
2018-07-16T17:18:29.837Z,29.70
2018-07-16T17:20:58.268Z,29.90
2018-07-16T17:23:26.864Z,29.90
2018-07-16T17:25:55.265Z,29.80
2018-07-16T17:28:23.679Z,29.80
2018-07-16T17:30:52.149Z,29.80
2018-07-16T17:33:20.489Z,29.80
2018-07-16T17:35:48.919Z,29.50
2018-07-16T17:38:17.592Z,29.50
2018-07-16T17:40:45.954Z,29.40
2018-07-16T17:43:14.311Z,29.60
2018-07-16T17:45:42.763Z,29.30
2018-07-16T17:48:11.200Z,29.40
2018-07-16T17:50:39.645Z,29.40
2018-07-16T17:53:08.150Z,29.40
2018-07-16T17:55:37.293Z,29.50
2018-07-16T17:58:06.093Z,29.60
2018-07-16T18:00:34.466Z,29.60
2018-07-16T18:03:02.869Z,29.50
2018-07-16T18:05:31.244Z,29.40
2018-07-16T18:07:59.671Z,29.20
2018-07-16T18:12:56.214Z,29.50
2018-07-16T18:15:25.048Z,29.40
2018-07-16T18:17:53.503Z,29.30
2018-07-16T18:20:21.898Z,29.30
2018-07-16T18:22:50.263Z,29.20
2018-07-16T18:27:46.761Z,29.20
2018-07-16T18:30:15.294Z,29.30
2018-07-16T18:32:43.967Z,29.30
2018-07-16T18:35:12.368Z,29.10
2018-07-16T18:37:40.837Z,29.10
2018-07-16T18:40:09.188Z,28.90
2018-07-16T18:42:37.841Z,28.90
2018-07-16T18:45:06.613Z,28.80
2018-07-16T18:47:35.257Z,28.80
2018-07-16T18:50:03.742Z,28.70
2018-07-16T18:52:32.176Z,28.70
2018-07-16T18:55:00.579Z,28.60
2018-07-16T18:57:29.005Z,28.60
2018-07-16T18:59:57.378Z,28.50
2018-07-16T19:02:26.093Z,28.50
2018-07-16T19:04:54.849Z,28.30
2018-07-16T19:07:23.700Z,28.40
2018-07-16T19:09:52.743Z,28.40
2018-07-16T19:12:21.413Z,28.30
2018-07-16T19:14:50.841Z,28.30
2018-07-16T19:17:19.262Z,28.30
2018-07-16T19:19:47.731Z,28.20
2018-07-16T19:22:16.032Z,28.30
2018-07-16T19:24:44.430Z,28.10
2018-07-16T19:27:13.110Z,28.10
2018-07-16T19:29:41.702Z,28.30
2018-07-16T19:32:10.093Z,28.10
2018-07-16T19:34:38.539Z,28.20
2018-07-16T19:37:07.303Z,28.30
2018-07-16T19:39:35.696Z,28.20
2018-07-16T19:42:04.160Z,28.20
2018-07-16T19:44:32.533Z,28.30
2018-07-16T19:47:00.897Z,28.00
2018-07-16T19:49:29.336Z,27.80
2018-07-16T19:51:57.819Z,27.30
2018-07-16T19:54:26.227Z,26.70
2018-07-16T19:56:54.685Z,26.10
2018-07-16T19:59:23.084Z,25.80
2018-07-16T20:01:51.514Z,25.70
2018-07-16T20:06:48.010Z,25.60
2018-07-16T20:09:16.497Z,25.30
2018-07-16T20:11:44.828Z,25.20
2018-07-16T20:14:13.193Z,25.30
2018-07-16T20:16:42.825Z,25.50
2018-07-16T20:20:40.674Z,25.50
2018-07-16T20:23:09.132Z,25.60
2018-07-16T20:25:37.840Z,25.50
2018-07-16T20:28:06.291Z,25.30
2018-07-16T20:30:34.705Z,25.20
2018-07-16T20:33:03.129Z,25.30
2018-07-16T20:35:31.538Z,25.00
2018-07-16T20:37:59.899Z,25.10
2018-07-16T20:40:28.519Z,25.20
2018-07-16T20:42:56.889Z,25.20
2018-07-16T20:45:25.319Z,25.20
2018-07-16T20:47:53.723Z,25.20
2018-07-16T20:50:22.172Z,25.30
2018-07-16T20:52:50.778Z,25.10
2018-07-16T20:55:19.170Z,25.10
2018-07-16T20:57:47.554Z,25.10
2018-07-16T21:00:16.034Z,25.10
2018-07-16T21:02:44.549Z,25.10
2018-07-16T21:05:13.175Z,25.20
2018-07-16T21:10:09.832Z,25.10
2018-07-16T21:12:38.284Z,25.10
2018-07-16T21:15:06.696Z,25.00
2018-07-16T21:17:35.145Z,24.80
2018-07-16T21:20:03.627Z,24.70
2018-07-16T21:22:32.228Z,24.80
2018-07-16T21:25:00.649Z,24.80
2018-07-16T21:27:29.131Z,24.50
2018-07-16T21:29:57.543Z,24.50
2018-07-16T21:32:25.867Z,24.70
2018-07-16T21:41:41.613Z,24.50
2018-07-16T21:44:10.025Z,24.30
2018-07-16T21:46:38.534Z,24.40
2018-07-16T21:49:06.984Z,24.40
2018-07-16T21:51:35.392Z,24.50
2018-07-16T21:54:03.919Z,24.40
2018-07-16T21:56:32.389Z,24.50
2018-07-16T21:59:01.382Z,24.50
2018-07-16T22:01:29.920Z,24.30
2018-07-16T22:03:58.382Z,24.30
2018-07-16T22:06:26.840Z,24.10
2018-07-16T22:08:55.277Z,24.10
2018-07-16T22:11:23.684Z,24.10
2018-07-16T22:13:53.062Z,24.20
2018-07-16T22:16:21.482Z,24.30
2018-07-16T22:18:49.917Z,24.30
2018-07-16T22:21:18.353Z,24.30
2018-07-16T22:23:46.703Z,24.10
2018-07-16T22:26:15.090Z,24.20
2018-07-16T22:28:43.452Z,24.30
2018-07-16T22:31:11.890Z,24.30
2018-07-16T22:33:41.222Z,24.30
2018-07-16T22:36:09.668Z,24.30
2018-07-16T22:38:38.176Z,24.40
2018-07-16T22:41:06.876Z,24.40
2018-07-16T22:43:35.634Z,24.40
2018-07-16T22:46:04.039Z,24.30
2018-07-16T22:48:32.466Z,24.20
2018-07-16T22:51:01.102Z,24.30
2018-07-16T22:55:57.575Z,24.10
2018-07-16T22:58:26.021Z,23.80
2018-07-16T23:00:55.725Z,23.80
2018-07-16T23:03:24.135Z,23.80
2018-07-16T23:05:52.519Z,23.80
2018-07-16T23:08:20.901Z,23.70
2018-07-16T23:10:49.330Z,23.40
2018-07-16T23:13:17.848Z,23.20
2018-07-16T23:15:46.382Z,22.90
2018-07-16T23:18:14.824Z,22.90
2018-07-16T23:20:43.244Z,22.90
2018-07-16T23:25:39.801Z,22.80
2018-07-16T23:28:08.161Z,22.70
2018-07-16T23:30:36.499Z,22.80
2018-07-16T23:33:04.828Z,22.80
2018-07-16T23:35:33.207Z,22.80
2018-07-16T23:38:01.582Z,22.80
2018-07-16T23:40:30.023Z,22.80
2018-07-16T23:42:58.395Z,22.70
2018-07-16T23:45:26.771Z,22.70
2018-07-16T23:47:55.222Z,22.80
2018-07-16T23:50:23.730Z,22.90
2018-07-16T23:52:52.059Z,22.80
2018-07-16T23:55:20.444Z,22.80
2018-07-16T23:57:49.215Z,22.80
